Hicksville, OH

2:46 AM EDT on June 02, 2015 (GMT -0400)
Hicksville | | Change Station
CLOSE
Current Station
Personal Weather Station
Location: Hicksville, OH
Elevation: 774 ft
Nearby Weather Stations
Active Advisory: Flood Warning

Elev 774 ft 41.30 °N, 84.76 °W | Updated 11 minutes ago

Clear
Clear
45.9 °F
Feels Like 46 °F
N
0.0
Wind Variable Wind from West

Today
High -- | Low -- °F
--% Chance of Precip.
Yesterday
High -- | Low -- °F
Precip. -- in
6:07 AM 9:06 PM
Full, 100% visible
Pressure 30.19 in
Visibility 9.0 miles
Clouds Scattered Clouds 2900 ft
Windchill 46 °F
Dew Point 45 °F
Humidity 96%
Rainfall 0.00 in
Snow Depth Not available.
UV 0 out of 12
Pollen 8.50 out of 12
Air Quality Not available.
Flu Activity Sporadic
SPECI KDFI 020611Z AUTO 00000KT 9SM SCT029 08/07 A3019 RMK AO2 T00830067

More Conditions Fewer Conditions

Pressure 30.19 in
Visibility 9.0 miles
Clouds Scattered Clouds 2900 ft
Windchill 46 °F
Dew Point 45 °F
Humidity 96%
Rainfall 0.00 in
Snow Depth Not available.
UV 0 out of 12
Pollen 8.50 out of 12
Air Quality Not available.
Flu Activity Sporadic
SPECI KDFI 020611Z AUTO 00000KT 9SM SCT029 08/07 A3019 RMK AO2 T00830067

More Conditions Fewer Conditions

10-Day Weather Forecast

Almanac

Astronomy

Jun. 02, 2015 Rise Set
Actual Time
Civil Twilight
Nautical Twilight
Astronomical Twilight
Moon
Length of Visible Light
Length of Day
Tomorrow will be .
, % of the Moon is Illuminated

Today's Extremes

State Highs State Lows

Community

WunderPhotos

Upload Photos

1,825,918 photos uploaded!

WunderBlogs® & News

Nearby

Air Quality

  Air Quality AQ Index Pollutant
Not available.

Snow Depth

Station Depth Elevation

Earthquake Activity

City Distance Mag. Time & Date
Minimum magnitude displayed is 2.5.

Coastal Water Temperatures

Place Temperature

Stations

Nearby Weather Stations

Station Location Temp. Windchill Dew Point Humidity Wind Precip. Elev Updated Type
                   
Flood Warning
Statement as of 11:13 AM EDT on June 01, 2015

the Flood Warning has been extended for
the Tiffin River near Stryker
* until Wednesday afternoon.
* At 10 am Monday the stage was 11.9 feet and steady.
* Minor flooding is occurring and minor flooding is forecast.
* Flood stage is 11.0 feet.
* Forecast... the river will fall below the 11.0 foot flood stage
around 2 PM Tuesday June 2.
* At 12.0 feet... portions of State Route 66 flood north of Archbold.


Lat... Lon 4130 8444 4149 8446 4159 8439 4159 8429
      4130 8438





1113 am EDT Mon Jun 1 2015

the Flood Warning has been extended for
the Maumee River near Defiance
* until Tuesday evening.
* At 11 am Monday the stage was 9.8 feet and rising.
* Minor flooding is forecast.
* Flood stage is 10.0 feet.
* Forecast... the river will rise to near flood stage around 8 PM
Monday June 1.
* At 10.0 feet... flooding occurs in Kingsbury and Pontiac Parks.


Lat... Lon 4121 8465 4127 8467 4131 8431 4128 8431